createdAt,value
2022-10-18T00:02:12.230Z,36.40
2022-10-18T00:04:39.269Z,36.80
2022-10-18T00:07:06.195Z,37.40
2022-10-18T00:09:33.444Z,38.70
2022-10-18T00:12:00.933Z,39.60
2022-10-18T00:14:27.853Z,37.60
2022-10-18T00:16:54.749Z,38.90
2022-10-18T00:19:24.717Z,39.70
2022-10-18T00:21:54.007Z,38.30
2022-10-18T00:24:20.958Z,35.70
2022-10-18T00:26:47.864Z,36.90
2022-10-18T00:29:15.481Z,37.00
2022-10-18T00:31:43.623Z,37.50
2022-10-18T00:34:12.554Z,38.40
2022-10-18T00:36:39.417Z,36.20
2022-10-18T00:39:06.920Z,37.20
2022-10-18T00:41:34.967Z,37.60
2022-10-18T00:44:01.883Z,35.00
2022-10-18T00:46:50.469Z,33.60
2022-10-18T00:49:22.631Z,32.90
2022-10-18T00:51:56.235Z,34.80
2022-10-18T00:54:23.541Z,33.20
2022-10-18T00:56:50.592Z,33.30
2022-10-18T00:59:18.045Z,31.50
2022-10-18T01:01:45.340Z,32.70
2022-10-18T01:04:13.924Z,31.20
2022-10-18T01:06:47.522Z,32.10
2022-10-18T01:09:24.612Z,30.90
2022-10-18T01:12:33.273Z,30.60
2022-10-18T01:15:23.858Z,30.60
2022-10-18T01:18:09.193Z,30.90
2022-10-18T01:21:00.658Z,31.30
2022-10-18T01:23:46.018Z,30.70
2022-10-18T01:26:35.722Z,28.40
2022-10-18T01:29:35.101Z,31.00
2022-10-18T01:32:03.812Z,29.90
2022-10-18T01:34:32.926Z,29.80
2022-10-18T01:36:59.782Z,31.30
2022-10-18T01:39:31.496Z,29.10
2022-10-18T01:41:58.687Z,29.70
2022-10-18T01:44:26.678Z,29.90
2022-10-18T01:46:54.389Z,29.20
2022-10-18T01:49:21.403Z,27.70
2022-10-18T01:51:48.448Z,30.00
2022-10-18T01:54:27.900Z,29.00
2022-10-18T01:57:25.229Z,28.20
2022-10-18T01:59:55.482Z,29.80
2022-10-18T02:02:29.166Z,28.60
2022-10-18T02:05:02.901Z,29.90
2022-10-18T02:07:43.673Z,25.70
2022-10-18T02:10:31.791Z,29.40
2022-10-18T02:12:58.756Z,26.70
2022-10-18T02:15:34.712Z,26.60
2022-10-18T02:18:02.527Z,26.80
2022-10-18T02:20:29.469Z,26.70
2022-10-18T02:22:56.559Z,28.60
2022-10-18T02:25:25.033Z,26.50
2022-10-18T02:27:54.445Z,26.80
2022-10-18T02:30:23.333Z,25.10
2022-10-18T02:33:14.956Z,25.60
2022-10-18T02:35:45.325Z,24.60
2022-10-18T02:38:12.425Z,25.20
2022-10-18T02:40:39.335Z,25.10
2022-10-18T02:43:06.507Z,23.80
2022-10-18T02:45:33.572Z,23.10
2022-10-18T02:48:00.529Z,23.00
2022-10-18T02:50:27.466Z,21.70
2022-10-18T02:52:54.538Z,24.10
2022-10-18T02:55:21.685Z,22.10
2022-10-18T02:57:48.700Z,21.40
2022-10-18T03:00:15.836Z,21.40
2022-10-18T03:02:42.747Z,22.20
2022-10-18T03:05:09.778Z,21.70
2022-10-18T03:07:36.739Z,22.30
2022-10-18T03:10:03.830Z,22.60
2022-10-18T03:12:30.903Z,24.20
2022-10-18T03:14:57.822Z,22.90
2022-10-18T03:17:24.792Z,25.10
2022-10-18T03:19:51.827Z,22.90
2022-10-18T03:22:18.822Z,22.90
2022-10-18T03:24:45.772Z,22.30
2022-10-18T03:27:12.803Z,20.30
2022-10-18T03:29:40.664Z,20.90
2022-10-18T03:32:07.580Z,20.50
2022-10-18T03:34:34.670Z,20.80
2022-10-18T03:37:04.738Z,22.50
2022-10-18T03:39:32.443Z,22.70
2022-10-18T03:41:59.396Z,22.40
2022-10-18T03:44:26.276Z,25.40
2022-10-18T03:46:53.240Z,27.10
2022-10-18T03:49:20.275Z,30.00
2022-10-18T03:51:47.137Z,29.40
2022-10-18T03:54:14.034Z,27.10
2022-10-18T03:56:40.909Z,23.60
2022-10-18T03:59:07.853Z,22.00
2022-10-18T04:01:34.689Z,22.20
2022-10-18T04:04:01.683Z,21.40
2022-10-18T04:06:28.797Z,20.90
2022-10-18T04:08:56.078Z,20.20
2022-10-18T04:11:23.090Z,19.60
2022-10-18T04:13:50.488Z,20.60
2022-10-18T04:16:17.418Z,20.00
2022-10-18T04:18:44.334Z,19.60
2022-10-18T04:21:11.269Z,20.60
2022-10-18T04:23:38.992Z,20.30
2022-10-18T04:26:06.600Z,20.00
2022-10-18T04:28:34.211Z,20.50
2022-10-18T04:31:01.332Z,19.20
2022-10-18T04:33:28.701Z,20.10
2022-10-18T04:35:55.626Z,19.60
2022-10-18T04:38:22.531Z,19.60
2022-10-18T04:40:49.497Z,21.10
2022-10-18T04:43:16.668Z,20.50
2022-10-18T04:45:45.723Z,20.40
2022-10-18T04:48:12.773Z,20.10
2022-10-18T04:50:39.807Z,20.50
2022-10-18T04:53:13.723Z,20.20
2022-10-18T04:55:43.898Z,20.90
2022-10-18T04:58:11.087Z,20.50
2022-10-18T05:00:40.085Z,20.50
2022-10-18T05:03:07.770Z,20.20
2022-10-18T05:05:49.662Z,21.30
2022-10-18T05:08:22.241Z,19.10
2022-10-18T05:10:49.157Z,19.80
2022-10-18T05:13:16.289Z,21.20
2022-10-18T05:15:43.233Z,21.50
2022-10-18T05:18:10.074Z,20.50
2022-10-18T05:20:37.173Z,21.00
2022-10-18T05:23:04.377Z,21.40
2022-10-18T05:25:31.261Z,21.50
2022-10-18T05:28:00.929Z,22.20
2022-10-18T05:32:53.152Z,23.80
2022-10-18T05:35:20.063Z,24.50
2022-10-18T05:37:47.204Z,24.50
2022-10-18T05:40:14.261Z,25.30
2022-10-18T05:42:41.248Z,24.20
2022-10-18T05:45:08.969Z,26.40
2022-10-18T05:50:08.374Z,24.10
2022-10-18T05:52:35.356Z,24.30
2022-10-18T05:55:02.379Z,23.70
2022-10-18T05:57:29.614Z,25.80
2022-10-18T05:59:57.011Z,25.10
2022-10-18T06:02:24.126Z,26.40
2022-10-18T06:04:51.157Z,24.70
2022-10-18T06:07:18.228Z,24.30
2022-10-18T06:09:45.168Z,24.60
2022-10-18T06:12:12.075Z,25.70
2022-10-18T06:14:39.032Z,26.20
2022-10-18T06:17:05.955Z,28.20
2022-10-18T06:19:32.943Z,27.30
2022-10-18T06:22:00.070Z,27.30
2022-10-18T06:24:27.488Z,29.80
2022-10-18T06:26:54.364Z,31.50
2022-10-18T06:29:21.308Z,32.10
2022-10-18T06:31:48.164Z,32.60
2022-10-18T06:34:15.080Z,33.50
2022-10-18T06:36:41.965Z,32.00
2022-10-18T06:39:08.891Z,32.40
2022-10-18T06:41:35.828Z,31.20
2022-10-18T06:44:17.109Z,31.30
2022-10-18T06:46:45.181Z,29.60
2022-10-18T06:49:14.089Z,28.60
2022-10-18T06:51:43.813Z,26.60
2022-10-18T06:54:17.865Z,26.80
2022-10-18T06:56:45.595Z,27.10
2022-10-18T06:59:15.069Z,27.10
2022-10-18T07:01:42.144Z,28.30
2022-10-18T07:04:09.132Z,26.70
2022-10-18T07:06:36.168Z,26.10
2022-10-18T07:09:03.966Z,27.20
2022-10-18T07:11:30.897Z,28.40
2022-10-18T07:14:05.388Z,28.80
2022-10-18T07:16:32.864Z,26.20
2022-10-18T07:18:59.769Z,27.30
2022-10-18T07:21:29.968Z,27.50
2022-10-18T07:23:56.946Z,28.30
2022-10-18T07:26:29.264Z,27.60
2022-10-18T07:28:58.550Z,26.90
2022-10-18T07:31:25.888Z,29.40
2022-10-18T07:33:53.069Z,27.50
2022-10-18T07:36:21.392Z,29.00
2022-10-18T07:38:49.325Z,29.10
2022-10-18T07:41:16.316Z,29.50
2022-10-18T07:43:47.542Z,30.40
2022-10-18T07:46:15.058Z,30.00
2022-10-18T07:48:42.103Z,30.00
2022-10-18T07:51:09.382Z,29.20
2022-10-18T07:53:36.667Z,31.20
2022-10-18T07:56:16.499Z,31.50
2022-10-18T07:58:44.364Z,30.20
2022-10-18T08:01:11.818Z,29.90
2022-10-18T08:03:38.962Z,27.50
2022-10-18T08:06:08.847Z,29.40
2022-10-18T08:08:36.155Z,28.30
2022-10-18T08:11:08.016Z,28.50
2022-10-18T08:13:34.967Z,26.40
2022-10-18T08:16:06.067Z,27.20
2022-10-18T08:18:33.290Z,27.30
2022-10-18T08:21:04.387Z,28.50
2022-10-18T08:23:31.327Z,29.60
2022-10-18T08:26:02.071Z,31.30
2022-10-18T08:28:29.603Z,31.20
2022-10-18T08:30:56.633Z,32.30
2022-10-18T08:33:23.652Z,32.20
2022-10-18T08:36:00.818Z,29.20
2022-10-18T08:38:31.533Z,27.40
2022-10-18T08:41:02.694Z,26.30
2022-10-18T08:43:39.012Z,27.90
2022-10-18T08:46:06.045Z,25.40
2022-10-18T08:48:36.100Z,25.80
2022-10-18T08:51:04.290Z,24.00
2022-10-18T08:53:40.184Z,24.50
2022-10-18T08:56:14.482Z,22.20
2022-10-18T08:58:43.088Z,23.70
2022-10-18T09:01:16.023Z,25.00
2022-10-18T09:04:11.001Z,26.20
2022-10-18T09:07:15.423Z,28.20
2022-10-18T09:10:07.338Z,26.20
2022-10-18T09:13:04.878Z,23.70
2022-10-18T09:15:54.254Z,23.90
2022-10-18T09:18:42.443Z,25.60
2022-10-18T09:21:17.940Z,27.80
2022-10-18T09:24:00.486Z,29.70
2022-10-18T09:29:13.364Z,26.20
2022-10-18T09:32:07.018Z,26.30
2022-10-18T09:34:48.021Z,23.70
2022-10-18T09:37:16.868Z,22.40
2022-10-18T09:39:44.149Z,24.10
2022-10-18T09:42:17.314Z,22.40
2022-10-18T09:44:49.359Z,22.90
2022-10-18T09:47:21.510Z,21.20
2022-10-18T09:49:54.342Z,21.60
2022-10-18T09:52:26.850Z,19.90
2022-10-18T09:55:00.160Z,20.30
2022-10-18T09:57:41.606Z,20.50
2022-10-18T10:00:23.014Z,19.20
2022-10-18T10:02:50.012Z,20.80
2022-10-18T10:05:17.185Z,17.80
2022-10-18T10:07:47.564Z,17.80
2022-10-18T10:10:14.679Z,16.00
2022-10-18T10:12:44.080Z,15.30
2022-10-18T10:15:22.897Z,14.80
2022-10-18T10:18:01.799Z,13.60
2022-10-18T10:20:50.812Z,15.30
2022-10-18T10:23:32.760Z,14.00
2022-10-18T10:26:05.218Z,13.40
2022-10-18T10:28:35.201Z,12.50
2022-10-18T10:31:33.318Z,12.30
2022-10-18T10:34:06.486Z,11.00
2022-10-18T10:36:34.278Z,10.10
2022-10-18T10:39:12.124Z,10.30
2022-10-18T10:41:40.474Z,10.60
2022-10-18T10:44:19.292Z,10.10
2022-10-18T10:46:46.361Z,10.10
2022-10-18T10:49:39.218Z,9.20
2022-10-18T10:52:15.441Z,9.40
2022-10-18T10:54:52.207Z,8.90
2022-10-18T10:57:27.035Z,9.10
2022-10-18T10:59:55.678Z,8.40
2022-10-18T11:02:33.394Z,8.50
2022-10-18T11:05:22.749Z,8.30
2022-10-18T11:10:08.020Z,8.90
2022-10-18T11:12:37.233Z,8.90
2022-10-18T11:15:12.167Z,9.00
2022-10-18T11:17:46.311Z,8.60
2022-10-18T11:20:19.757Z,8.60
2022-10-18T11:22:54.177Z,8.70
2022-10-18T11:25:21.349Z,8.90
2022-10-18T11:27:57.612Z,8.30
